Time;durP1;ratioP1;P1;durP2;ratioP2;P2;SDS_P1;SDS_P2;PMS_P1;PMS_P2;Temp;Humidity;BMP_temperature;BMP_pressure;BME280_temperature;BME280_humidity;BME280_pressure;Samples;Min_cycle;Max_cycle;Signal;HPM_P1;HPM_P2
2021/08/11 00:00:31;;;;;;;7.23;1.60;;;19.80;95.80;;;;;;4952023;28;20187;-67
2021/08/11 00:02:59;;;;;;;4.57;1.20;;;19.80;95.70;;;;;;4961941;28;20186;-68
2021/08/11 00:05:27;;;;;;;8.33;1.40;;;19.80;95.50;;;;;;4953121;28;20314;-67
2021/08/11 00:07:54;;;;;;;2.93;1.33;;;19.80;95.60;;;;;;4956141;28;20194;-68
2021/08/11 00:10:22;;;;;;;5.43;1.27;;;19.90;95.80;;;;;;4943772;28;20233;-68
2021/08/11 00:12:49;;;;;;;5.03;1.93;;;20.00;95.70;;;;;;4961983;28;20198;-70
2021/08/11 00:15:17;;;;;;;5.97;3.00;;;20.10;95.30;;;;;;4967476;28;20638;-67
2021/08/11 00:17:44;;;;;;;7.40;3.23;;;20.10;95.50;;;;;;4949755;28;20667;-69
2021/08/11 00:20:12;;;;;;;5.07;1.80;;;20.30;95.30;;;;;;4937008;28;20753;-67
2021/08/11 00:22:39;;;;;;;4.67;1.40;;;20.30;95.20;;;;;;4957238;28;20274;-69
2021/08/11 00:25:07;;;;;;;5.13;1.13;;;20.20;95.10;;;;;;4959982;28;20318;-68
2021/08/11 00:27:35;;;;;;;5.23;2.50;;;20.30;95.00;;;;;;4953106;28;20210;-65
2021/08/11 00:30:03;;;;;;;9.43;2.63;;;20.40;95.10;;;;;;4943657;28;20190;-69
2021/08/11 00:32:31;;;;;;;6.13;1.50;;;20.40;94.90;;;;;;4944507;29;20583;-70
2021/08/11 00:34:58;;;;;;;5.17;1.17;;;20.40;94.60;;;;;;4939121;28;20565;-67
2021/08/11 00:37:25;;;;;;;5.77;1.30;;;20.50;94.60;;;;;;4952136;28;20276;-67
2021/08/11 00:39:54;;;;;;;5.37;1.40;;;20.40;94.80;;;;;;4948488;28;20191;-68
2021/08/11 00:42:22;;;;;;;5.97;1.37;;;20.70;94.90;;;;;;4950773;28;20196;-68
2021/08/11 00:44:49;;;;;;;7.33;1.77;;;20.70;94.60;;;;;;4938231;29;20207;-69
2021/08/11 00:47:17;;;;;;;6.30;1.70;;;20.80;94.70;;;;;;4949096;28;20202;-70
2021/08/11 00:49:45;;;;;;;5.47;1.90;;;20.70;94.50;;;;;;4964272;28;20188;-68
2021/08/11 00:52:12;;;;;;;6.60;1.20;;;20.80;94.30;;;;;;4956241;28;20217;-69
2021/08/11 00:54:41;;;;;;;2.87;1.03;;;20.80;94.20;;;;;;4952775;28;20337;-68
2021/08/11 00:57:12;;;;;;;3.90;1.20;;;20.80;94.00;;;;;;4948105;28;20210;-68
2021/08/11 00:59:41;;;;;;;3.43;1.07;;;20.90;94.00;;;;;;4958496;28;20273;-68
2021/08/11 01:02:10;;;;;;;5.07;1.23;;;21.00;93.70;;;;;;4954039;28;20187;-69
2021/08/11 01:04:39;;;;;;;8.70;1.60;;;21.10;93.80;;;;;;4954568;28;20768;-67
2021/08/11 01:07:10;;;;;;;6.77;1.60;;;21.20;93.50;;;;;;4953181;28;20286;-68
2021/08/11 01:09:39;;;;;;;4.13;1.63;;;21.40;93.60;;;;;;4947325;28;20278;-70
2021/08/11 01:12:06;;;;;;;3.57;1.37;;;21.30;93.10;;;;;;4952248;28;20193;-68
2021/08/11 01:14:38;;;;;;;4.87;1.47;;;21.30;93.60;;;;;;4950832;28;20229;-67
2021/08/11 01:17:06;;;;;;;3.30;1.20;;;21.40;93.20;;;;;;4952902;28;20191;-67
2021/08/11 01:19:33;;;;;;;2.63;0.87;;;21.30;92.90;;;;;;4959689;28;20607;-68
2021/08/11 01:22:07;;;;;;;6.20;1.80;;;21.50;93.30;;;;;;4971716;28;20185;-68
2021/08/11 01:25:18;;;;;;;6.23;1.27;;;21.50;92.70;;;;;;4953818;29;20207;-69
2021/08/11 01:27:51;;;;;;;5.67;1.60;;;21.60;92.60;;;;;;4904955;29;20195;-68
2021/08/11 01:30:26;;;;;;;5.07;1.60;;;21.50;92.40;;;;;;4971774;28;20187;-70
2021/08/11 01:33:00;;;;;;;5.30;1.23;;;21.40;92.90;;;;;;4973661;28;20202;-68
2021/08/11 01:35:40;;;;;;;2.17;1.13;;;21.60;92.40;;;;;;4973891;28;20178;-68
2021/08/11 01:38:13;;;;;;;4.30;1.20;;;21.70;92.40;;;;;;4960606;28;20243;-71
2021/08/11 01:40:48;;;;;;;6.53;1.87;;;21.90;92.10;;;;;;4964163;28;20185;-70
2021/08/11 01:43:17;;;;;;;5.17;1.10;;;22.00;92.00;;;;;;4966015;28;20174;-69
2021/08/11 01:45:45;;;;;;;5.33;1.63;;;22.00;92.10;;;;;;4963510;28;20763;-68
2021/08/11 01:48:17;;;;;;;5.97;1.50;;;22.00;92.20;;;;;;4956269;28;20209;-68
2021/08/11 01:50:49;;;;;;;3.60;1.10;;;22.40;92.30;;;;;;4928717;28;20714;-68
2021/08/11 01:53:25;;;;;;;3.07;1.17;;;22.30;91.80;;;;;;4969509;28;20176;-69
2021/08/11 01:55:56;;;;;;;5.90;1.17;;;22.30;91.70;;;;;;4948824;28;20215;-69
2021/08/11 01:58:31;;;;;;;6.57;1.73;;;22.50;91.60;;;;;;4945938;28;20176;-70
2021/08/11 02:01:07;;;;;;;4.37;1.27;;;22.50;91.50;;;;;;4952609;29;20188;-70
2021/08/11 02:03:37;;;;;;;4.10;1.20;;;22.60;91.50;;;;;;4928892;29;20187;-70
2021/08/11 02:06:05;;;;;;;4.90;1.20;;;22.70;91.00;;;;;;4929069;29;20309;-67
2021/08/11 02:08:34;;;;;;;4.53;1.40;;;22.60;91.30;;;;;;4944705;28;20176;-68
2021/08/11 02:11:02;;;;;;;8.33;1.67;;;22.80;91.30;;;;;;4947781;28;20198;-71
2021/08/11 02:13:33;;;;;;;10.77;1.17;;;22.60;91.30;;;;;;4950715;28;20272;-70
2021/08/11 02:16:00;;;;;;;5.43;1.50;;;22.90;91.20;;;;;;4952167;28;20187;-68
2021/08/11 02:18:27;;;;;;;2.50;1.30;;;23.10;91.20;;;;;;4945123;28;20248;-69
2021/08/11 02:20:56;;;;;;;4.97;1.10;;;23.10;90.90;;;;;;4953095;28;20198;-68
2021/08/11 02:23:24;;;;;;;7.80;1.50;;;23.30;90.60;;;;;;4952630;28;20191;-66
2021/08/11 02:25:51;;;;;;;2.13;1.00;;;23.10;90.90;;;;;;4932195;29;20266;-71
2021/08/11 02:28:32;;;;;;;5.30;1.40;;;23.00;90.60;;;;;;4955408;28;20217;-67
2021/08/11 02:31:12;;;;;;;7.53;1.40;;;22.90;90.60;;;;;;4955467;28;20765;-69
2021/08/11 02:33:59;;;;;;;3.20;1.40;;;22.90;90.60;;;;;;4957672;28;20196;-70
2021/08/11 02:36:31;;;;;;;4.63;1.03;;;23.10;90.60;;;;;;4952011;28;20191;-69
2021/08/11 02:39:09;;;;;;;4.30;1.30;;;23.10;90.30;;;;;;4931165;29;20249;-69
2021/08/11 02:41:52;;;;;;;5.27;1.27;;;23.30;90.40;;;;;;4949935;28;20193;-69
2021/08/11 02:44:46;;;;;;;4.90;1.17;;;23.20;90.20;;;;;;4952386;28;20269;-68
2021/08/11 02:47:13;;;;;;;3.43;1.63;;;23.10;90.30;;;;;;4938856;28;20187;-68
2021/08/11 02:49:41;;;;;;;4.70;1.10;;;23.50;90.10;;;;;;4945226;28;20186;-70
2021/08/11 02:52:11;;;;;;;4.20;1.13;;;23.80;89.80;;;;;;4949186;28;20191;-68
2021/08/11 02:54:41;;;;;;;5.87;1.33;;;23.80;89.60;;;;;;4935295;29;20187;-68
2021/08/11 02:57:09;;;;;;;3.63;1.10;;;23.50;90.00;;;;;;4949167;28;20243;-70
2021/08/11 02:59:37;;;;;;;5.77;1.60;;;23.60;90.20;;;;;;4947049;28;20207;-69
2021/08/11 03:02:08;;;;;;;3.83;1.37;;;24.00;89.70;;;;;;4940055;28;20602;-69
2021/08/11 03:04:36;;;;;;;3.50;1.27;;;24.10;89.20;;;;;;4947922;28;20325;-70
2021/08/11 03:07:03;;;;;;;4.07;1.23;;;24.10;89.10;;;;;;4943410;28;20271;-69
2021/08/11 03:09:31;;;;;;;4.03;1.00;;;24.00;88.90;;;;;;4954829;28;20175;-68
2021/08/11 03:12:01;;;;;;;6.33;1.30;;;23.80;89.40;;;;;;4956766;28;20191;-68
2021/08/11 03:14:28;;;;;;;7.43;1.40;;;23.90;88.90;;;;;;4952279;28;20269;-68
2021/08/11 03:16:56;;;;;;;1.87;0.93;;;24.20;88.90;;;;;;4953064;28;20187;-68
2021/08/11 03:19:24;;;;;;;2.80;1.30;;;24.00;88.50;;;;;;4948866;28;20196;-68
2021/08/11 03:21:51;;;;;;;5.53;1.27;;;24.20;88.40;;;;;;4935783;29;20234;-69
2021/08/11 03:24:19;;;;;;;5.07;1.23;;;24.20;87.90;;;;;;4953081;28;20218;-69
2021/08/11 03:26:46;;;;;;;3.80;1.30;;;24.30;88.40;;;;;;4956068;28;20640;-69
2021/08/11 03:29:13;;;;;;;4.30;1.63;;;24.40;88.10;;;;;;4951549;28;20188;-68
2021/08/11 03:31:41;;;;;;;4.17;1.07;;;24.50;87.20;;;;;;4951082;28;20250;-69
2021/08/11 03:34:08;;;;;;;4.83;1.13;;;24.40;87.10;;;;;;4951904;28;20188;-68
2021/08/11 03:36:35;;;;;;;4.47;1.30;;;24.50;86.10;;;;;;4951241;28;20199;-69
2021/08/11 03:39:03;;;;;;;5.63;1.00;;;24.60;86.60;;;;;;4958719;28;20222;-67
2021/08/11 03:41:30;;;;;;;4.40;1.37;;;24.30;86.80;;;;;;4955479;28;20193;-68
2021/08/11 03:43:58;;;;;;;2.27;1.10;;;24.40;86.60;;;;;;4956547;28;20195;-70
2021/08/11 03:46:26;;;;;;;7.27;1.13;;;24.10;87.10;;;;;;4955261;28;20269;-68
2021/08/11 03:48:53;;;;;;;5.13;1.33;;;24.60;86.90;;;;;;4960458;28;20188;-67
2021/08/11 03:51:20;;;;;;;5.90;1.53;;;24.80;85.90;;;;;;4969363;28;20237;-67
2021/08/11 03:53:48;;;;;;;5.17;1.60;;;24.10;86.60;;;;;;4973965;28;20271;-68
2021/08/11 03:56:15;;;;;;;3.37;1.10;;;24.00;87.70;;;;;;4958275;28;20184;-71
2021/08/11 03:58:42;;;;;;;2.50;1.07;;;24.70;86.90;;;;;;4958214;28;20278;-68
2021/08/11 04:01:10;;;;;;;7.07;1.57;;;25.20;85.50;;;;;;4953695;28;20656;-69
2021/08/11 04:03:37;;;;;;;3.90;1.13;;;25.80;83.90;;;;;;4952738;29;20183;-68
2021/08/11 04:16:49;;;;;;;6.73;1.00;;;25.60;80.30;;;;;;4950513;28;20187;-73
2021/08/11 04:19:17;;;;;;;2.57;0.90;;;25.50;80.50;;;;;;4940222;28;20191;-71
2021/08/11 04:21:44;;;;;;;5.70;1.47;;;25.50;80.50;;;;;;4952664;29;20536;-70
2021/08/11 04:24:12;;;;;;;1.70;0.70;;;25.60;80.40;;;;;;4953072;28;20183;-73
2021/08/11 04:26:39;;;;;;;7.13;0.90;;;25.80;79.90;;;;;;4951829;28;20187;-71
2021/08/11 04:29:06;;;;;;;9.17;1.30;;;25.70;79.30;;;;;;4955658;28;20191;-72
2021/08/11 04:31:34;;;;;;;6.80;1.00;;;25.70;79.70;;;;;;4957836;28;20636;-74
2021/08/11 04:34:01;;;;;;;4.93;1.07;;;25.90;79.50;;;;;;4957021;28;20476;-73
2021/08/11 04:36:29;;;;;;;5.13;1.17;;;25.60;78.90;;;;;;4954219;28;20390;-71
2021/08/11 04:38:56;;;;;;;4.43;1.40;;;25.70;79.30;;;;;;4955205;28;20230;-72
2021/08/11 04:41:23;;;;;;;3.47;1.07;;;25.60;79.20;;;;;;4955203;29;20210;-71
2021/08/11 04:43:52;;;;;;;1.67;1.03;;;25.50;79.00;;;;;;4957072;28;20519;-69
2021/08/11 04:46:21;;;;;;;5.77;1.20;;;25.70;79.30;;;;;;4947514;28;20226;-73
2021/08/11 04:48:48;;;;;;;3.80;0.90;;;26.00;78.10;;;;;;4950235;28;20199;-74
2021/08/11 04:51:16;;;;;;;3.43;1.20;;;25.90;78.00;;;;;;4958632;28;20198;-69
2021/08/11 04:53:43;;;;;;;3.53;0.80;;;25.90;78.10;;;;;;4955563;28;20191;-68
2021/08/11 04:56:11;;;;;;;3.20;1.00;;;26.20;78.00;;;;;;4961327;28;20183;-70
2021/08/11 04:58:38;;;;;;;2.87;0.77;;;26.40;76.40;;;;;;4957027;28;20179;-69
2021/08/11 05:01:06;;;;;;;2.87;1.00;;;26.50;76.40;;;;;;4954568;28;20254;-70
2021/08/11 05:03:38;;;;;;;8.93;1.53;;;26.20;76.30;;;;;;4948282;28;20603;-71
2021/08/11 05:06:08;;;;;;;4.47;1.03;;;26.20;76.40;;;;;;4960092;28;20232;-69
2021/08/11 05:08:41;;;;;;;3.30;1.07;;;26.20;77.10;;;;;;4966543;28;20186;-69
2021/08/11 05:11:09;;;;;;;3.47;1.17;;;26.40;76.20;;;;;;4960343;28;20195;-70
2021/08/11 05:13:37;;;;;;;7.40;1.20;;;26.50;75.10;;;;;;4965981;28;20186;-75
2021/08/11 05:16:04;;;;;;;3.20;1.10;;;26.30;75.50;;;;;;4974036;28;20266;-71
2021/08/11 05:18:32;;;;;;;4.73;1.00;;;26.20;76.00;;;;;;4969604;28;20187;-70
2021/08/11 05:20:59;;;;;;;8.13;1.10;;;26.90;75.30;;;;;;4953127;29;20267;-71
2021/08/11 05:23:27;;;;;;;6.63;1.30;;;26.50;74.80;;;;;;4971921;28;20201;-72
2021/08/11 05:25:55;;;;;;;3.47;0.90;;;26.50;75.40;;;;;;4968454;28;20238;-69
2021/08/11 05:28:22;;;;;;;3.27;1.00;;;26.00;75.00;;;;;;4948043;28;20188;-70
2021/08/11 05:30:50;;;;;;;4.63;1.37;;;25.70;75.90;;;;;;4941630;28;20191;-74
2021/08/11 05:33:17;;;;;;;6.03;1.10;;;26.10;75.40;;;;;;4932315;28;20221;-72
2021/08/11 05:35:44;;;;;;;6.23;1.17;;;25.80;75.60;;;;;;4957221;28;20215;-71
2021/08/11 05:38:12;;;;;;;1.97;0.87;;;26.10;75.30;;;;;;4953587;28;20239;-69
2021/08/11 05:40:39;;;;;;;4.00;0.97;;;26.20;74.60;;;;;;4942342;28;20210;-73
2021/08/11 05:43:07;;;;;;;4.97;1.00;;;26.10;74.50;;;;;;4965916;28;20680;-71
2021/08/11 05:45:34;;;;;;;5.20;1.00;;;26.30;74.20;;;;;;4962379;28;20690;-70
2021/08/11 05:48:01;;;;;;;4.53;1.03;;;26.60;73.20;;;;;;4954422;28;20297;-70
2021/08/11 05:50:29;;;;;;;6.13;1.70;;;26.30;73.70;;;;;;4944003;28;20180;-71
2021/08/11 05:52:56;;;;;;;3.93;0.80;;;26.00;74.20;;;;;;4942870;28;20179;-71
2021/08/11 05:55:23;;;;;;;2.60;0.87;;;25.70;74.50;;;;;;4956023;28;20262;-69
2021/08/11 05:57:51;;;;;;;4.00;1.00;;;25.60;74.20;;;;;;4969631;28;20210;-70
2021/08/11 06:00:18;;;;;;;3.60;1.00;;;25.80;74.50;;;;;;4951343;28;20183;-71
2021/08/11 06:02:46;;;;;;;3.90;1.00;;;25.60;74.20;;;;;;4947245;28;20186;-68
2021/08/11 06:05:13;;;;;;;4.37;1.00;;;25.70;74.20;;;;;;4969536;28;20261;-70
2021/08/11 06:07:41;;;;;;;4.83;1.00;;;25.70;74.30;;;;;;4955231;28;20191;-70
2021/08/11 06:10:09;;;;;;;2.53;0.90;;;25.70;73.70;;;;;;4950725;28;20218;-71
2021/08/11 06:12:36;;;;;;;3.90;0.90;;;25.40;73.50;;;;;;4960968;28;20183;-69
2021/08/11 06:15:04;;;;;;;4.97;1.07;;;25.40;73.90;;;;;;4949154;28;20195;-70
2021/08/11 06:17:32;;;;;;;1.77;0.90;;;25.60;73.90;;;;;;4954937;28;20253;-70
2021/08/11 06:19:59;;;;;;;7.83;1.47;;;25.20;74.00;;;;;;4962665;28;20257;-69
2021/08/11 06:22:27;;;;;;;5.60;1.67;;;24.90;75.10;;;;;;4951051;28;20645;-69
2021/08/11 06:24:54;;;;;;;8.73;1.00;;;24.70;75.90;;;;;;4949156;28;20598;-70
2021/08/11 06:27:22;;;;;;;3.73;0.90;;;24.30;76.30;;;;;;4956076;28;20183;-70
2021/08/11 06:29:50;;;;;;;3.73;0.90;;;24.20;76.50;;;;;;4953274;28;20191;-70
2021/08/11 06:32:18;;;;;;;4.70;1.00;;;24.00;76.40;;;;;;4955475;28;20547;-70
2021/08/11 06:34:45;;;;;;;4.17;0.97;;;23.80;77.10;;;;;;4952677;28;20194;-69
2021/08/11 06:37:12;;;;;;;5.47;1.20;;;23.60;77.50;;;;;;4955014;28;20239;-72
2021/08/11 06:39:40;;;;;;;5.17;1.23;;;23.40;77.60;;;;;;4953140;28;20188;-70
2021/08/11 06:42:07;;;;;;;5.93;0.93;;;23.40;77.80;;;;;;4957299;28;20600;-69
2021/08/11 06:44:35;;;;;;;3.90;1.20;;;23.20;78.00;;;;;;4961179;28;20241;-70
2021/08/11 06:47:02;;;;;;;6.60;1.30;;;23.10;78.30;;;;;;4955409;28;20234;-70
2021/08/11 06:49:29;;;;;;;4.83;1.10;;;23.10;78.50;;;;;;4951081;28;20194;-70
2021/08/11 06:51:57;;;;;;;15.47;1.53;;;23.00;78.60;;;;;;4955245;28;20211;-70
2021/08/11 06:54:24;;;;;;;7.33;1.47;;;23.00;78.80;;;;;;4960052;28;20230;-70
2021/08/11 06:56:53;;;;;;;4.30;0.83;;;23.00;78.70;;;;;;4955697;28;20191;-70
2021/08/11 06:59:20;;;;;;;3.93;0.87;;;22.90;78.60;;;;;;4958095;28;20179;-71
2021/08/11 07:01:47;;;;;;;3.30;1.03;;;22.80;78.90;;;;;;4952407;28;20214;-73
2021/08/11 07:04:15;;;;;;;3.37;0.90;;;22.80;78.90;;;;;;4955642;28;20191;-71
2021/08/11 07:06:42;;;;;;;2.90;1.00;;;22.70;79.10;;;;;;4948022;28;20195;-70
2021/08/11 07:09:09;;;;;;;4.67;1.00;;;22.70;79.60;;;;;;4950540;28;20549;-71
2021/08/11 07:11:39;;;;;;;5.73;0.93;;;22.60;79.80;;;;;;4955442;28;20197;-71
2021/08/11 07:14:07;;;;;;;2.60;1.00;;;22.50;80.10;;;;;;4954406;28;20198;-70
2021/08/11 07:16:37;;;;;;;2.47;1.13;;;22.40;80.50;;;;;;4952828;28;20654;-71
2021/08/11 07:19:04;;;;;;;4.33;1.17;;;22.40;81.00;;;;;;4954626;28;20175;-70
2021/08/11 07:21:31;;;;;;;3.43;1.53;;;22.30;81.60;;;;;;4947736;28;20190;-69
2021/08/11 07:23:59;;;;;;;2.80;0.80;;;22.20;82.30;;;;;;4951894;28;20329;-70
2021/08/11 07:26:26;;;;;;;6.27;1.33;;;22.10;82.90;;;;;;4958220;28;20225;-71
2021/08/11 07:28:53;;;;;;;10.83;1.40;;;22.00;83.70;;;;;;4953359;28;20206;-70
2021/08/11 07:31:21;;;;;;;8.70;1.83;;;21.90;84.10;;;;;;4949804;28;20246;-70
2021/08/11 07:33:48;;;;;;;7.43;1.47;;;21.80;84.80;;;;;;4951474;28;20179;-70
2021/08/11 07:36:16;;;;;;;4.83;1.20;;;21.80;85.40;;;;;;4953161;28;20266;-70
2021/08/11 07:38:43;;;;;;;6.67;1.30;;;21.70;85.80;;;;;;4954111;28;20348;-69
2021/08/11 07:41:10;;;;;;;9.77;1.50;;;21.70;86.60;;;;;;4953653;28;20184;-69
2021/08/11 07:43:38;;;;;;;4.10;1.27;;;21.50;87.00;;;;;;4951642;28;20195;-69
2021/08/11 07:46:05;;;;;;;5.90;1.47;;;21.50;87.40;;;;;;4952848;28;20222;-70
2021/08/11 07:48:32;;;;;;;5.60;1.53;;;21.40;87.70;;;;;;4949338;28;20187;-70
2021/08/11 07:51:00;;;;;;;4.63;1.40;;;21.40;88.30;;;;;;4948613;28;20196;-69
2021/08/11 07:53:27;;;;;;;7.57;1.43;;;21.30;88.50;;;;;;4950242;28;20541;-70
2021/08/11 07:55:54;;;;;;;4.80;1.33;;;21.20;89.00;;;;;;4951581;28;20195;-70
2021/08/11 07:58:24;;;;;;;5.87;1.20;;;21.20;89.40;;;;;;4957774;28;20191;-70
2021/08/11 08:00:52;;;;;;;5.90;1.30;;;21.10;89.90;;;;;;4944069;28;20187;-70
2021/08/11 08:03:19;;;;;;;3.23;1.17;;;21.00;90.00;;;;;;4953389;28;20191;-70
2021/08/11 08:05:47;;;;;;;3.60;1.10;;;21.00;90.10;;;;;;4954167;28;20223;-70
2021/08/11 08:08:14;;;;;;;3.97;1.13;;;20.90;90.10;;;;;;4953438;28;20187;-70
2021/08/11 08:10:42;;;;;;;3.57;1.47;;;21.00;90.20;;;;;;4950810;28;20653;-70
2021/08/11 08:13:09;;;;;;;4.63;1.20;;;20.90;90.30;;;;;;4949770;28;20539;-73
2021/08/11 08:15:38;;;;;;;3.50;1.27;;;20.80;90.40;;;;;;4952058;28;20286;-72
2021/08/11 08:18:05;;;;;;;4.10;1.07;;;20.80;90.60;;;;;;4951017;28;20183;-71
2021/08/11 08:20:34;;;;;;;2.50;1.27;;;20.80;90.60;;;;;;4961826;28;20234;-72
2021/08/11 08:23:02;;;;;;;6.90;3.33;;;20.70;90.70;;;;;;4946905;28;20623;-73
2021/08/11 08:25:29;;;;;;;13.03;8.30;;;20.70;90.80;;;;;;4950879;28;20302;-72
2021/08/11 08:27:57;;;;;;;23.67;9.87;;;20.70;90.90;;;;;;4963270;28;20249;-70
2021/08/11 08:30:24;;;;;;;7.60;1.97;;;20.60;91.10;;;;;;4965631;28;20195;-73
2021/08/11 08:32:51;;;;;;;4.63;1.17;;;20.60;91.20;;;;;;4954710;28;20202;-72
2021/08/11 08:35:19;;;;;;;3.73;1.47;;;20.50;91.40;;;;;;4955861;28;20187;-72
2021/08/11 08:37:46;;;;;;;6.50;1.47;;;20.50;91.50;;;;;;4971115;28;20226;-72
2021/08/11 08:40:14;;;;;;;9.27;1.40;;;20.50;91.60;;;;;;4966019;28;20189;-72
2021/08/11 08:42:43;;;;;;;4.57;2.53;;;20.40;91.80;;;;;;4965762;28;20203;-73
2021/08/11 08:45:12;;;;;;;6.33;1.40;;;20.40;91.90;;;;;;4957706;28;20226;-72
2021/08/11 08:47:40;;;;;;;3.57;1.60;;;20.30;92.10;;;;;;4973796;28;20285;-72
2021/08/11 08:50:11;;;;;;;2.80;1.20;;;20.30;92.30;;;;;;4955373;28;20184;-72
2021/08/11 08:52:40;;;;;;;5.83;1.33;;;20.30;92.40;;;;;;4974594;28;20700;-71
2021/08/11 08:55:07;;;;;;;3.43;1.30;;;20.20;92.50;;;;;;4974159;28;20214;-71
2021/08/11 08:57:35;;;;;;;4.47;1.37;;;20.10;92.70;;;;;;4964614;28;20630;-71
2021/08/11 09:00:08;;;;;;;6.07;1.30;;;20.10;92.90;;;;;;4959518;28;20195;-71
2021/08/11 09:02:43;;;;;;;3.13;1.40;;;20.00;92.90;;;;;;4967529;28;20186;-73
2021/08/11 09:05:12;;;;;;;4.63;1.40;;;20.00;93.10;;;;;;4949265;28;20221;-70
2021/08/11 09:07:47;;;;;;;4.77;2.10;;;20.00;93.20;;;;;;4966461;28;20183;-70
2021/08/11 09:10:17;;;;;;;5.10;2.07;;;20.00;93.20;;;;;;4942473;28;20265;-71
2021/08/11 09:12:46;;;;;;;7.10;2.10;;;20.00;93.20;;;;;;4954500;28;20583;-72
2021/08/11 09:15:38;;;;;;;4.47;1.90;;;20.00;93.20;;;;;;4960223;28;20345;-72
2021/08/11 09:18:14;;;;;;;3.40;1.57;;;20.00;93.20;;;;;;4948042;28;20645;-71
2021/08/11 09:20:44;;;;;;;4.80;1.50;;;20.00;93.20;;;;;;4947867;28;20273;-73
2021/08/11 09:23:13;;;;;;;3.97;1.83;;;19.90;93.40;;;;;;4952773;28;20210;-73
2021/08/11 09:26:03;;;;;;;2.80;1.30;;;19.90;93.60;;;;;;4950035;28;20227;-72
2021/08/11 09:28:32;;;;;;;4.87;1.60;;;19.90;93.60;;;;;;4962733;28;20175;-70
2021/08/11 09:31:00;;;;;;;4.27;1.63;;;19.80;93.70;;;;;;4968497;28;20220;-70
2021/08/11 09:33:27;;;;;;;4.30;1.47;;;19.80;93.60;;;;;;4964199;28;20250;-70
2021/08/11 09:36:10;;;;;;;4.37;1.70;;;19.80;93.60;;;;;;4944485;28;20588;-71
2021/08/11 09:38:57;;;;;;;5.53;1.73;;;19.80;93.60;;;;;;4946399;28;20230;-70
2021/08/11 09:41:25;;;;;;;3.40;1.13;;;19.80;93.60;;;;;;4946272;28;20191;-72
2021/08/11 09:44:09;;;;;;;3.93;1.50;;;19.70;93.80;;;;;;4953821;28;20194;-69
2021/08/11 09:46:38;;;;;;;5.23;1.80;;;19.70;93.80;;;;;;4973290;28;20206;-71
2021/08/11 09:49:21;;;;;;;5.80;2.07;;;19.70;93.90;;;;;;4960960;28;20201;-71
2021/08/11 09:51:59;;;;;;;4.53;1.97;;;19.60;94.00;;;;;;4942277;28;20206;-72
2021/08/11 09:54:28;;;;;;;6.50;1.53;;;19.60;94.10;;;;;;4956513;28;20174;-72
2021/08/11 09:56:56;;;;;;;5.73;2.03;;;19.50;94.10;;;;;;4952390;28;20266;-72
2021/08/11 09:59:24;;;;;;;3.10;1.40;;;19.50;94.20;;;;;;4953777;28;20214;-70
2021/08/11 10:01:51;;;;;;;4.53;1.60;;;19.50;94.20;;;;;;4957539;28;20187;-71
2021/08/11 10:04:20;;;;;;;4.93;1.50;;;19.50;94.30;;;;;;4957373;29;20182;-71
2021/08/11 10:06:47;;;;;;;3.83;1.27;;;19.50;94.30;;;;;;4944966;29;20258;-72
2021/08/11 10:09:25;;;;;;;5.03;1.90;;;19.50;94.20;;;;;;4944213;29;20188;-71
2021/08/11 10:11:54;;;;;;;6.00;1.60;;;19.50;94.20;;;;;;4952297;28;20195;-70
2021/08/11 10:14:37;;;;;;;4.60;1.60;;;19.40;94.10;;;;;;4957415;28;20184;-70
2021/08/11 10:17:05;;;;;;;4.30;1.50;;;19.40;94.30;;;;;;4926623;29;20561;-70
2021/08/11 10:19:34;;;;;;;3.13;1.30;;;19.40;94.20;;;;;;4955947;28;20607;-68
2021/08/11 10:22:08;;;;;;;6.50;1.60;;;19.40;94.10;;;;;;4957912;28;20210;-69
2021/08/11 10:24:36;;;;;;;4.53;1.40;;;19.40;94.00;;;;;;4954832;29;20209;-69
2021/08/11 10:27:07;;;;;;;4.63;1.27;;;19.40;94.00;;;;;;4948569;28;20685;-69
2021/08/11 10:29:37;;;;;;;9.30;1.73;;;19.50;93.90;;;;;;4957711;28;20183;-67
2021/08/11 10:32:08;;;;;;;4.87;1.87;;;19.50;93.80;;;;;;4957787;29;20670;-70
2021/08/11 10:34:36;;;;;;;3.20;1.33;;;19.50;93.80;;;;;;4936584;29;20190;-69
2021/08/11 10:37:04;;;;;;;5.83;1.40;;;19.50;93.70;;;;;;4956812;29;20677;-69
2021/08/11 10:39:33;;;;;;;4.20;1.20;;;19.50;93.80;;;;;;4951071;28;20191;-69
2021/08/11 10:42:08;;;;;;;4.93;1.10;;;19.50;93.80;;;;;;4956441;28;20225;-68
2021/08/11 10:44:36;;;;;;;5.50;1.67;;;19.40;94.00;;;;;;4954598;28;20219;-71
2021/08/11 10:47:05;;;;;;;7.60;1.47;;;19.30;94.20;;;;;;4946928;28;20678;-69
2021/08/11 10:49:50;;;;;;;5.70;1.47;;;19.30;94.20;;;;;;4944039;28;20579;-70
2021/08/11 10:52:18;;;;;;;6.83;1.40;;;19.30;94.20;;;;;;4954585;28;20233;-69
2021/08/11 10:55:06;;;;;;;9.43;1.97;;;19.40;94.10;;;;;;4957434;28;20306;-68
2021/08/11 11:00:13;;;;;;;5.03;1.20;;;19.30;94.30;;;;;;4952877;29;20194;-68
2021/08/11 11:02:40;;;;;;;4.23;1.30;;;19.30;94.30;;;;;;4955058;29;20536;-69
2021/08/11 11:05:31;;;;;;;2.40;1.10;;;19.30;94.30;;;;;;4957268;28;20221;-69
2021/08/11 11:08:14;;;;;;;3.13;1.20;;;19.30;94.30;;;;;;4951625;29;20198;-69
2021/08/11 11:10:46;;;;;;;2.60;0.90;;;19.30;94.20;;;;;;4950550;28;20609;-68
2021/08/11 11:13:34;;;;;;;3.37;1.13;;;19.30;94.20;;;;;;4956747;29;20183;-69
2021/08/11 11:16:03;;;;;;;5.80;1.17;;;19.30;94.30;;;;;;4956871;29;20231;-67
2021/08/11 11:18:31;;;;;;;2.73;1.30;;;19.30;94.50;;;;;;4953866;28;20250;-70
2021/08/11 11:20:58;;;;;;;4.07;1.30;;;19.30;94.40;;;;;;4951214;28;20275;-70
2021/08/11 11:23:36;;;;;;;3.63;1.30;;;19.30;94.40;;;;;;4956612;29;20198;-70
2021/08/11 11:26:10;;;;;;;5.00;1.20;;;19.30;94.40;;;;;;4955284;28;20647;-72
2021/08/11 11:28:56;;;;;;;14.73;1.10;;;19.30;94.40;;;;;;4952234;28;20199;-72
2021/08/11 11:31:55;;;;;;;7.70;1.10;;;19.20;94.50;;;;;;4949836;29;20186;-71
2021/08/11 11:34:34;;;;;;;4.70;1.10;;;19.20;94.50;;;;;;4950193;28;20535;-71
2021/08/11 11:37:02;;;;;;;2.53;1.03;;;19.20;94.60;;;;;;4956355;29;20203;-68
2021/08/11 11:39:43;;;;;;;4.13;0.97;;;19.20;94.70;;;;;;4947581;28;20183;-71
2021/08/11 11:42:22;;;;;;;4.20;1.20;;;19.10;94.70;;;;;;4953035;28;20187;-70
2021/08/11 11:44:59;;;;;;;12.40;1.20;;;19.10;94.90;;;;;;4942086;28;20262;-68
2021/08/11 11:47:42;;;;;;;2.90;1.00;;;19.00;94.90;;;;;;4953832;28;20191;-70
2021/08/11 11:50:22;;;;;;;3.23;1.23;;;19.00;95.10;;;;;;4955400;28;20273;-70
2021/08/11 11:52:50;;;;;;;8.03;1.20;;;19.00;95.10;;;;;;4942929;28;20772;-71
2021/08/11 11:55:36;;;;;;;2.53;1.00;;;18.90;95.20;;;;;;4949833;29;20192;-70
2021/08/11 11:58:08;;;;;;;3.33;0.83;;;18.90;95.30;;;;;;4953574;29;20247;-71
2021/08/11 12:00:36;;;;;;;4.43;1.67;;;18.90;95.30;;;;;;4955584;28;20193;-71
2021/08/11 12:03:04;;;;;;;3.50;1.00;;;18.90;95.70;;;;;;4948349;29;20191;-72
2021/08/11 12:05:52;;;;;;;3.87;1.40;;;18.80;95.50;;;;;;4955118;28;20226;-71
2021/08/11 12:08:22;;;;;;;4.17;1.13;;;18.80;95.60;;;;;;4949648;28;20192;-72
2021/08/11 12:10:51;;;;;;;5.00;1.10;;;18.80;95.70;;;;;;4943755;28;20191;-70
2021/08/11 12:13:19;;;;;;;3.40;1.00;;;18.80;95.70;;;;;;4948579;28;20195;-72
2021/08/11 12:15:54;;;;;;;4.33;1.00;;;18.80;95.80;;;;;;4966965;28;20187;-70
2021/08/11 12:18:25;;;;;;;3.83;1.03;;;18.80;95.80;;;;;;4967986;28;20276;-70
2021/08/11 12:20:55;;;;;;;4.57;1.17;;;18.80;95.80;;;;;;4952894;28;20209;-70
2021/08/11 12:23:30;;;;;;;4.60;0.93;;;18.70;95.80;;;;;;4955392;28;20195;-69
2021/08/11 12:26:01;;;;;;;2.13;1.10;;;18.80;95.70;;;;;;4951060;28;20585;-70
2021/08/11 12:28:43;;;;;;;6.33;1.20;;;18.80;95.70;;;;;;4959642;28;20178;-70
2021/08/11 12:31:23;;;;;;;4.77;1.10;;;18.80;95.80;;;;;;4967089;28;20205;-73
2021/08/11 12:33:52;;;;;;;5.87;0.87;;;18.80;95.90;;;;;;4948271;28;20210;-71
2021/08/11 12:36:26;;;;;;;3.90;0.90;;;18.80;95.90;;;;;;4970725;28;20269;-72
2021/08/11 12:39:16;;;;;;;2.20;1.07;;;18.80;95.90;;;;;;4969754;28;20219;-72
2021/08/11 12:42:02;;;;;;;3.93;1.07;;;18.70;96.10;;;;;;4960474;28;20184;-71
2021/08/11 12:44:31;;;;;;;7.23;1.10;;;18.80;95.90;;;;;;4973961;28;20201;-73
2021/08/11 12:47:03;;;;;;;6.63;1.10;;;18.70;96.00;;;;;;4964465;28;20685;-72
2021/08/11 12:49:39;;;;;;;3.83;1.00;;;18.70;96.30;;;;;;4974208;28;20185;-71
2021/08/11 12:52:11;;;;;;;3.03;1.10;;;18.70;96.10;;;;;;4957776;28;20182;-71
2021/08/11 12:55:09;;;;;;;2.60;0.83;;;18.70;96.20;;;;;;4959375;28;20668;-71
2021/08/11 12:57:43;;;;;;;3.27;1.07;;;18.60;96.20;;;;;;4954140;28;20580;-71
2021/08/11 13:00:14;;;;;;;3.23;1.23;;;18.70;96.40;;;;;;4955026;28;20209;-72
2021/08/11 13:02:42;;;;;;;4.93;1.10;;;18.60;96.40;;;;;;4937019;29;20187;-71
2021/08/11 13:05:19;;;;;;;2.07;0.90;;;18.50;96.60;;;;;;4954572;29;20203;-73
2021/08/11 13:07:54;;;;;;;4.30;1.00;;;18.50;96.60;;;;;;4954820;29;20179;-71
2021/08/11 13:10:24;;;;;;;4.13;1.10;;;18.50;96.70;;;;;;4954180;29;20178;-72
2021/08/11 13:12:53;;;;;;;1.60;0.80;;;18.40;96.80;;;;;;4948526;28;20272;-70
2021/08/11 13:15:31;;;;;;;8.83;1.20;;;18.50;96.70;;;;;;4954761;28;20183;-72